METAR Data
IDs: Format: Raw Decoded Include TAF

Data at: 2019 UTC 08 Aug 2020

KDVT 081953Z COR 17004G16KT 150V210 10SM CLR 41/03 A2990 RMK AO2 SLP094 T04060033
KDVT 081853Z 25006KT 10SM CLR 39/07 A2992 RMK AO2 SLP100 T03940072
KDVT 081827Z 22006KT 10SM CLR 38/07 A2992 RMK AO2 T03830072
KDVT 081753Z VRB04KT 10SM CLR 37/08 A2993 RMK AO2 SLP105 T03720078 10378 20256 58003
KDVT 081653Z VRB05KT 10SM CLR 36/08 A2994 RMK AO2 SLP108 T03610083
KDVT 081553Z COR 16005KT 10SM CLR 34/09 A2994 RMK AO2 SLP110 T03390094
KDVT 081453Z 13004KT 10SM CLR 33/07 A2994 RMK AO2 SLP108 T03280072 53015
KDVT 081353Z VRB03KT 10SM CLR 29/08 A2992 RMK AO2 SLP104 T02890078
KDVT 081253Z 00000KT 10SM CLR 26/08 A2991 RMK AO2 SLP100 T02610083
KDVT 081153Z AUTO 00000KT 10SM CLR 27/09 A2989 RMK AO2 SLP095 T02720089 10333 20272 53007
KDVT 081053Z AUTO 04003KT 10SM CLR 28/08 A2988 RMK AO2 SLP090 T02780083
KDVT 080953Z AUTO 00000KT 10SM CLR 28/09 A2988 RMK AO2 SLP089 T02830094
KDVT 080853Z AUTO 10004KT 10SM CLR 28/09 A2987 RMK AO2 SLP086 T02830089 50003
KDVT 080753Z AUTO 00000KT 10SM CLR 31/08 A2987 RMK AO2 SLP086 T03060083
KDVT 080653Z AUTO 00000KT 10SM CLR 32/09 A2987 RMK AO2 SLP086 T03220094 404060239
KDVT 080553Z AUTO 00000KT 10SM CLR 33/09 A2986 RMK AO2 SLP083 T03330089 10406 20333 51015
KDVT 080453Z AUTO 25005KT 10SM CLR 36/08 A2986 RMK AO2 SLP080 T03560083
KDVT 080353Z 00000KT 10SM CLR 37/11 A2983 RMK AO2 SLP073 T03670111
KDVT 080253Z 24006KT 10SM CLR 38/11 A2982 RMK AO2 SLP068 T03780106 55001
KDVT 080153Z 23007KT 10SM CLR 38/11 A2981 RMK AO2 SLP066 T03830106
KDVT 080053Z VRB05KT 10SM CLR 39/09 A2981 RMK AO2 SLP066 T03940094
KDVT 072353Z COR 24003KT 10SM CLR 39/09 A2982 RMK AO2 SLP070 T03890089 10406 20350 56017
KDVT 072253Z 24009G17KT 10SM CLR 40/08 A2984 RMK AO2 SLP075 T04000083
KDVT 072153Z COR 22004G13KT 10SM CLR 39/08 A2986 RMK AO2 SLP082 T03940083
KDVT 072053Z 22005G15KT 10SM CLR 39/11 A2987 RMK AO2 SLP087 T03890106 58016
KDVT 071953Z 17005KT 10SM CLR 38/11 A2989 RMK AO2 SLP095 T03780111
KDVT 071853Z VRB03KT 10SM CLR 37/12 A2991 RMK AO2 SLP099 T03670117
KDVT 071753Z COR 22005KT 10SM CLR 36/12 A2992 RMK AO2 SLP104 T03560122 10361 20239 50004
KDVT 071653Z 26005KT 10SM CLR 34/11 A2993 RMK AO2 SLP106 T03390111
KDVT 071636Z VRB03KT 10SM CLR 33/11 A2993 RMK AO2 T03330106
KDVT 071553Z VRB03KT 10SM CLR 33/09 A2992 RMK AO2 SLP104 T03280094
KDVT 071453Z 00000KT 9SM CLR 31/07 A2991 RMK AO2 SLP098 T03110067 51024
KDVT 071353Z 09004KT 10SM CLR 29/04 A2989 RMK AO2 SLP091 T02940044
KDVT 071253Z 12005KT 10SM CLR 26/03 A2987 RMK AO2 SLP085 T02610028
KDVT 071153Z AUTO 00000KT 10SM CLR 25/01 A2983 RMK AO2 SLP074 T02500011 10311 20244 53009
KDVT 071053Z AUTO 00000KT 10SM CLR 26/01 A2982 RMK AO2 SLP070 T02610011
KDVT 070953Z AUTO 12003KT 10SM CLR 26/01 A2981 RMK AO2 SLP067 T02610011
KDVT 070853Z AUTO 00000KT 10SM CLR 27/02 A2981 RMK AO2 SLP064 T02670017 51006